sensor_id;sensor_type;location;lat;lon;timestamp;temperature;humidity
19552;DHT22;9921;47.186;9.778;2023-11-21T00:00:58;7.50;99.90
19552;DHT22;9921;47.186;9.778;2023-11-21T00:03:27;7.50;99.90
19552;DHT22;9921;47.186;9.778;2023-11-21T00:05:54;7.50;99.90
19552;DHT22;9921;47.186;9.778;2023-11-21T00:08:22;7.50;99.90
19552;DHT22;9921;47.186;9.778;2023-11-21T00:10:49;7.40;99.90
19552;DHT22;9921;47.186;9.778;2023-11-21T00:13:16;7.40;99.90
19552;DHT22;9921;47.186;9.778;2023-11-21T00:15:43;7.50;99.90
19552;DHT22;9921;47.186;9.778;2023-11-21T00:18:10;7.40;99.90
19552;DHT22;9921;47.186;9.778;2023-11-21T00:20:37;7.40;99.90
19552;DHT22;9921;47.186;9.778;2023-11-21T00:23:04;7.40;99.90
19552;DHT22;9921;47.186;9.778;2023-11-21T00:25:32;7.40;99.90
19552;DHT22;9921;47.186;9.778;2023-11-21T00:27:59;7.50;99.90
19552;DHT22;9921;47.186;9.778;2023-11-21T00:30:27;7.50;99.90
19552;DHT22;9921;47.186;9.778;2023-11-21T00:32:54;7.50;99.90
19552;DHT22;9921;47.186;9.778;2023-11-21T00:35:21;7.50;99.90
19552;DHT22;9921;47.186;9.778;2023-11-21T00:37:48;7.50;99.90
19552;DHT22;9921;47.186;9.778;2023-11-21T00:40:15;7.50;99.90
19552;DHT22;9921;47.186;9.778;2023-11-21T00:42:46;7.50;99.90
19552;DHT22;9921;47.186;9.778;2023-11-21T00:45:13;7.50;99.90
19552;DHT22;9921;47.186;9.778;2023-11-21T00:47:40;7.50;99.90
19552;DHT22;9921;47.186;9.778;2023-11-21T00:50:08;7.50;99.90
19552;DHT22;9921;47.186;9.778;2023-11-21T00:52:35;7.50;99.90
19552;DHT22;9921;47.186;9.778;2023-11-21T00:55:02;7.60;99.90
19552;DHT22;9921;47.186;9.778;2023-11-21T00:57:29;7.60;99.90
19552;DHT22;9921;47.186;9.778;2023-11-21T00:59:58;7.60;99.90
19552;DHT22;9921;47.186;9.778;2023-11-21T01:02:25;7.60;99.90
19552;DHT22;9921;47.186;9.778;2023-11-21T01:04:52;7.60;99.90
19552;DHT22;9921;47.186;9.778;2023-11-21T01:07:21;7.50;99.90
19552;DHT22;9921;47.186;9.778;2023-11-21T01:09:48;7.50;99.90
19552;DHT22;9921;47.186;9.778;2023-11-21T01:12:15;7.50;99.90
19552;DHT22;9921;47.186;9.778;2023-11-21T01:14:43;7.40;99.90
19552;DHT22;9921;47.186;9.778;2023-11-21T01:17:12;7.40;99.90
19552;DHT22;9921;47.186;9.778;2023-11-21T01:19:38;7.30;99.90
19552;DHT22;9921;47.186;9.778;2023-11-21T01:22:05;7.20;99.90
19552;DHT22;9921;47.186;9.778;2023-11-21T01:24:32;7.10;99.90
19552;DHT22;9921;47.186;9.778;2023-11-21T01:26:59;7.10;99.90
19552;DHT22;9921;47.186;9.778;2023-11-21T01:29:26;7.10;99.90
19552;DHT22;9921;47.186;9.778;2023-11-21T01:31:53;7.10;99.90
19552;DHT22;9921;47.186;9.778;2023-11-21T01:34:21;7.20;99.90
19552;DHT22;9921;47.186;9.778;2023-11-21T01:36:49;7.10;99.90
19552;DHT22;9921;47.186;9.778;2023-11-21T01:39:15;7.20;99.90
19552;DHT22;9921;47.186;9.778;2023-11-21T01:41:49;7.10;99.90
19552;DHT22;9921;47.186;9.778;2023-11-21T01:44:16;7.10;99.90
19552;DHT22;9921;47.186;9.778;2023-11-21T01:46:44;7.10;99.90
19552;DHT22;9921;47.186;9.778;2023-11-21T01:49:12;7.10;99.90
19552;DHT22;9921;47.186;9.778;2023-11-21T01:51:43;7.10;99.90
19552;DHT22;9921;47.186;9.778;2023-11-21T01:54:10;7.10;99.90
19552;DHT22;9921;47.186;9.778;2023-11-21T01:56:37;7.10;99.90
19552;DHT22;9921;47.186;9.778;2023-11-21T01:59:04;7.10;99.90
19552;DHT22;9921;47.186;9.778;2023-11-21T02:01:33;7.20;99.90
19552;DHT22;9921;47.186;9.778;2023-11-21T02:03:59;7.20;99.90
19552;DHT22;9921;47.186;9.778;2023-11-21T02:06:27;7.20;99.90
19552;DHT22;9921;47.186;9.778;2023-11-21T02:08:57;7.20;99.90
19552;DHT22;9921;47.186;9.778;2023-11-21T02:11:25;7.20;99.90
19552;DHT22;9921;47.186;9.778;2023-11-21T02:13:52;7.20;99.90
19552;DHT22;9921;47.186;9.778;2023-11-21T02:16:20;7.20;99.90
19552;DHT22;9921;47.186;9.778;2023-11-21T02:18:47;7.20;99.90
19552;DHT22;9921;47.186;9.778;2023-11-21T02:21:15;7.20;99.90
19552;DHT22;9921;47.186;9.778;2023-11-21T02:23:43;7.20;99.90
19552;DHT22;9921;47.186;9.778;2023-11-21T02:26:12;7.20;99.90
19552;DHT22;9921;47.186;9.778;2023-11-21T02:28:39;7.20;99.90
19552;DHT22;9921;47.186;9.778;2023-11-21T02:31:08;7.20;99.90
19552;DHT22;9921;47.186;9.778;2023-11-21T02:33:35;7.20;99.90
19552;DHT22;9921;47.186;9.778;2023-11-21T02:36:02;7.20;99.90
19552;DHT22;9921;47.186;9.778;2023-11-21T02:38:29;7.20;99.90
19552;DHT22;9921;47.186;9.778;2023-11-21T02:40:58;7.20;99.90
19552;DHT22;9921;47.186;9.778;2023-11-21T02:43:25;7.20;99.90
19552;DHT22;9921;47.186;9.778;2023-11-21T02:45:52;7.30;99.90
19552;DHT22;9921;47.186;9.778;2023-11-21T02:48:18;7.30;99.90
19552;DHT22;9921;47.186;9.778;2023-11-21T02:50:45;7.30;99.90
19552;DHT22;9921;47.186;9.778;2023-11-21T02:53:12;7.30;99.90
19552;DHT22;9921;47.186;9.778;2023-11-21T02:55:40;7.30;99.90
19552;DHT22;9921;47.186;9.778;2023-11-21T02:58:08;7.30;99.90
19552;DHT22;9921;47.186;9.778;2023-11-21T03:00:35;7.30;99.90
19552;DHT22;9921;47.186;9.778;2023-11-21T03:03:02;7.30;99.90
19552;DHT22;9921;47.186;9.778;2023-11-21T03:05:29;7.30;99.90
19552;DHT22;9921;47.186;9.778;2023-11-21T03:07:56;7.30;99.90
19552;DHT22;9921;47.186;9.778;2023-11-21T03:10:23;7.30;99.90
19552;DHT22;9921;47.186;9.778;2023-11-21T03:12:50;7.30;99.90
19552;DHT22;9921;47.186;9.778;2023-11-21T03:15:18;7.30;99.90
19552;DHT22;9921;47.186;9.778;2023-11-21T03:17:45;7.30;99.90
19552;DHT22;9921;47.186;9.778;2023-11-21T03:20:14;7.30;99.90
19552;DHT22;9921;47.186;9.778;2023-11-21T03:22:42;7.30;99.90
19552;DHT22;9921;47.186;9.778;2023-11-21T03:25:09;7.30;99.90
19552;DHT22;9921;47.186;9.778;2023-11-21T03:27:37;7.20;99.90
19552;DHT22;9921;47.186;9.778;2023-11-21T03:30:05;7.20;99.90
19552;DHT22;9921;47.186;9.778;2023-11-21T03:32:35;7.20;99.90
19552;DHT22;9921;47.186;9.778;2023-11-21T03:35:02;7.20;99.90
19552;DHT22;9921;47.186;9.778;2023-11-21T03:37:29;7.30;99.90
19552;DHT22;9921;47.186;9.778;2023-11-21T03:39:56;7.30;99.90
19552;DHT22;9921;47.186;9.778;2023-11-21T03:42:22;7.30;99.90
19552;DHT22;9921;47.186;9.778;2023-11-21T03:44:51;7.30;99.90
19552;DHT22;9921;47.186;9.778;2023-11-21T03:47:17;7.30;99.90
19552;DHT22;9921;47.186;9.778;2023-11-21T03:49:46;7.30;99.90
19552;DHT22;9921;47.186;9.778;2023-11-21T03:52:13;7.30;99.90
19552;DHT22;9921;47.186;9.778;2023-11-21T03:54:39;7.30;99.90
19552;DHT22;9921;47.186;9.778;2023-11-21T03:57:06;7.30;99.90
19552;DHT22;9921;47.186;9.778;2023-11-21T03:59:34;7.30;99.90
19552;DHT22;9921;47.186;9.778;2023-11-21T04:02:01;7.40;99.90
19552;DHT22;9921;47.186;9.778;2023-11-21T04:04:28;7.40;99.90
19552;DHT22;9921;47.186;9.778;2023-11-21T04:06:56;7.40;99.90
19552;DHT22;9921;47.186;9.778;2023-11-21T04:09:23;7.40;99.90
19552;DHT22;9921;47.186;9.778;2023-11-21T04:11:50;7.40;99.90
19552;DHT22;9921;47.186;9.778;2023-11-21T04:14:17;7.40;99.90
19552;DHT22;9921;47.186;9.778;2023-11-21T04:16:44;7.50;99.90
19552;DHT22;9921;47.186;9.778;2023-11-21T04:19:11;7.50;99.90
19552;DHT22;9921;47.186;9.778;2023-11-21T04:21:40;7.50;99.90
19552;DHT22;9921;47.186;9.778;2023-11-21T04:24:09;7.50;99.90
19552;DHT22;9921;47.186;9.778;2023-11-21T04:26:36;7.50;99.90
19552;DHT22;9921;47.186;9.778;2023-11-21T04:29:03;7.50;99.90
19552;DHT22;9921;47.186;9.778;2023-11-21T04:31:30;7.50;99.90
19552;DHT22;9921;47.186;9.778;2023-11-21T04:33:57;7.50;99.90
19552;DHT22;9921;47.186;9.778;2023-11-21T04:36:24;7.50;99.90
19552;DHT22;9921;47.186;9.778;2023-11-21T04:38:51;7.50;99.90
19552;DHT22;9921;47.186;9.778;2023-11-21T04:41:19;7.50;99.90
19552;DHT22;9921;47.186;9.778;2023-11-21T04:43:46;7.50;99.90
19552;DHT22;9921;47.186;9.778;2023-11-21T04:46:12;7.50;99.90
19552;DHT22;9921;47.186;9.778;2023-11-21T04:48:39;7.50;99.90
19552;DHT22;9921;47.186;9.778;2023-11-21T04:51:06;7.50;99.90
19552;DHT22;9921;47.186;9.778;2023-11-21T04:53:33;7.50;99.90
19552;DHT22;9921;47.186;9.778;2023-11-21T04:56:00;7.50;99.90
19552;DHT22;9921;47.186;9.778;2023-11-21T04:58:30;7.50;99.90
19552;DHT22;9921;47.186;9.778;2023-11-21T05:00:57;7.40;99.90
19552;DHT22;9921;47.186;9.778;2023-11-21T05:03:24;7.50;99.90
19552;DHT22;9921;47.186;9.778;2023-11-21T05:05:51;7.50;99.90
19552;DHT22;9921;47.186;9.778;2023-11-21T05:08:18;7.50;99.90
19552;DHT22;9921;47.186;9.778;2023-11-21T05:10:46;7.50;99.90
19552;DHT22;9921;47.186;9.778;2023-11-21T05:13:13;7.50;99.90
19552;DHT22;9921;47.186;9.778;2023-11-21T05:15:44;7.50;99.90
19552;DHT22;9921;47.186;9.778;2023-11-21T05:18:10;7.60;99.90
19552;DHT22;9921;47.186;9.778;2023-11-21T05:20:39;7.60;99.90
19552;DHT22;9921;47.186;9.778;2023-11-21T05:23:06;7.60;99.90
19552;DHT22;9921;47.186;9.778;2023-11-21T05:25:33;7.60;99.90
19552;DHT22;9921;47.186;9.778;2023-11-21T05:28:00;7.60;99.90
19552;DHT22;9921;47.186;9.778;2023-11-21T05:30:28;7.60;99.90
19552;DHT22;9921;47.186;9.778;2023-11-21T05:32:56;7.60;99.90
19552;DHT22;9921;47.186;9.778;2023-11-21T05:35:23;7.60;99.90
19552;DHT22;9921;47.186;9.778;2023-11-21T05:37:50;7.60;99.90
19552;DHT22;9921;47.186;9.778;2023-11-21T05:40:16;7.60;99.90
19552;DHT22;9921;47.186;9.778;2023-11-21T05:42:44;7.60;99.90
19552;DHT22;9921;47.186;9.778;2023-11-21T05:45:11;7.60;99.90
19552;DHT22;9921;47.186;9.778;2023-11-21T05:47:39;7.60;99.90
19552;DHT22;9921;47.186;9.778;2023-11-21T05:50:09;7.60;99.90
19552;DHT22;9921;47.186;9.778;2023-11-21T05:52:38;7.60;99.90
19552;DHT22;9921;47.186;9.778;2023-11-21T05:55:06;7.60;99.90
19552;DHT22;9921;47.186;9.778;2023-11-21T05:57:33;7.70;99.90
19552;DHT22;9921;47.186;9.778;2023-11-21T06:00:03;7.70;99.90
19552;DHT22;9921;47.186;9.778;2023-11-21T06:02:37;7.70;99.90
19552;DHT22;9921;47.186;9.778;2023-11-21T06:05:04;7.70;99.90
19552;DHT22;9921;47.186;9.778;2023-11-21T06:07:32;7.70;99.90
19552;DHT22;9921;47.186;9.778;2023-11-21T06:09:59;7.70;99.90
19552;DHT22;9921;47.186;9.778;2023-11-21T06:12:28;7.70;99.90
19552;DHT22;9921;47.186;9.778;2023-11-21T06:14:55;7.60;99.90
19552;DHT22;9921;47.186;9.778;2023-11-21T06:17:21;7.70;99.90
19552;DHT22;9921;47.186;9.778;2023-11-21T06:19:50;7.70;99.90
19552;DHT22;9921;47.186;9.778;2023-11-21T06:22:18;7.70;99.90
19552;DHT22;9921;47.186;9.778;2023-11-21T06:24:46;7.70;99.90
19552;DHT22;9921;47.186;9.778;2023-11-21T06:27:13;7.70;99.90
19552;DHT22;9921;47.186;9.778;2023-11-21T06:29:41;7.70;99.90
19552;DHT22;9921;47.186;9.778;2023-11-21T06:32:08;7.70;99.90
19552;DHT22;9921;47.186;9.778;2023-11-21T06:34:35;7.70;99.90
19552;DHT22;9921;47.186;9.778;2023-11-21T06:37:02;7.70;99.90
19552;DHT22;9921;47.186;9.778;2023-11-21T06:39:29;7.70;99.90
19552;DHT22;9921;47.186;9.778;2023-11-21T06:41:57;7.70;99.90
19552;DHT22;9921;47.186;9.778;2023-11-21T06:44:25;7.70;99.90
19552;DHT22;9921;47.186;9.778;2023-11-21T06:46:52;7.70;99.90
19552;DHT22;9921;47.186;9.778;2023-11-21T06:49:19;7.80;99.90
19552;DHT22;9921;47.186;9.778;2023-11-21T06:51:46;7.80;99.90
19552;DHT22;9921;47.186;9.778;2023-11-21T06:54:13;7.80;99.90
19552;DHT22;9921;47.186;9.778;2023-11-21T06:56:40;7.80;99.90
19552;DHT22;9921;47.186;9.778;2023-11-21T06:59:08;7.80;99.90
19552;DHT22;9921;47.186;9.778;2023-11-21T07:01:36;7.90;99.90
19552;DHT22;9921;47.186;9.778;2023-11-21T07:04:05;7.80;99.90
19552;DHT22;9921;47.186;9.778;2023-11-21T07:06:32;7.80;99.90
19552;DHT22;9921;47.186;9.778;2023-11-21T07:08:59;7.80;99.90
19552;DHT22;9921;47.186;9.778;2023-11-21T07:11:26;7.80;99.90
19552;DHT22;9921;47.186;9.778;2023-11-21T07:13:53;7.90;99.90
19552;DHT22;9921;47.186;9.778;2023-11-21T07:16:21;7.90;99.90
19552;DHT22;9921;47.186;9.778;2023-11-21T07:18:49;7.80;99.90
19552;DHT22;9921;47.186;9.778;2023-11-21T07:21:16;7.90;99.90
19552;DHT22;9921;47.186;9.778;2023-11-21T07:23:43;7.90;99.90
19552;DHT22;9921;47.186;9.778;2023-11-21T07:26:09;7.90;99.90
19552;DHT22;9921;47.186;9.778;2023-11-21T07:28:36;8.00;99.90
19552;DHT22;9921;47.186;9.778;2023-11-21T07:31:03;8.00;99.90
19552;DHT22;9921;47.186;9.778;2023-11-21T07:33:32;8.00;99.90
19552;DHT22;9921;47.186;9.778;2023-11-21T07:35:59;8.00;99.90
19552;DHT22;9921;47.186;9.778;2023-11-21T07:38:26;8.00;99.90
19552;DHT22;9921;47.186;9.778;2023-11-21T07:40:53;8.10;99.90
19552;DHT22;9921;47.186;9.778;2023-11-21T07:43:20;8.00;99.90
19552;DHT22;9921;47.186;9.778;2023-11-21T07:45:47;8.10;99.90
19552;DHT22;9921;47.186;9.778;2023-11-21T07:48:14;8.10;99.90
19552;DHT22;9921;47.186;9.778;2023-11-21T07:50:42;8.20;99.90
19552;DHT22;9921;47.186;9.778;2023-11-21T07:53:09;8.20;99.90
19552;DHT22;9921;47.186;9.778;2023-11-21T07:55:36;8.20;99.90
19552;DHT22;9921;47.186;9.778;2023-11-21T07:58:03;8.20;99.90
19552;DHT22;9921;47.186;9.778;2023-11-21T08:00:30;8.30;99.90
19552;DHT22;9921;47.186;9.778;2023-11-21T08:02:57;8.20;99.90
19552;DHT22;9921;47.186;9.778;2023-11-21T08:05:24;8.30;99.90
19552;DHT22;9921;47.186;9.778;2023-11-21T08:07:52;8.30;99.90
19552;DHT22;9921;47.186;9.778;2023-11-21T08:10:19;8.40;99.90
19552;DHT22;9921;47.186;9.778;2023-11-21T08:12:47;8.40;99.90
19552;DHT22;9921;47.186;9.778;2023-11-21T08:15:16;8.40;99.90
19552;DHT22;9921;47.186;9.778;2023-11-21T08:17:43;8.50;99.90
19552;DHT22;9921;47.186;9.778;2023-11-21T08:20:11;8.50;99.90
19552;DHT22;9921;47.186;9.778;2023-11-21T08:22:38;8.50;99.90
19552;DHT22;9921;47.186;9.778;2023-11-21T08:25:08;8.60;99.90
19552;DHT22;9921;47.186;9.778;2023-11-21T08:27:35;8.70;99.90
19552;DHT22;9921;47.186;9.778;2023-11-21T08:30:02;8.80;99.90
19552;DHT22;9921;47.186;9.778;2023-11-21T08:32:29;8.90;99.90
19552;DHT22;9921;47.186;9.778;2023-11-21T08:34:57;9.10;99.90
19552;DHT22;9921;47.186;9.778;2023-11-21T08:37:24;9.20;99.90
19552;DHT22;9921;47.186;9.778;2023-11-21T08:39:53;9.30;99.90
19552;DHT22;9921;47.186;9.778;2023-11-21T08:42:21;9.50;99.90
19552;DHT22;9921;47.186;9.778;2023-11-21T08:44:48;9.60;99.90
19552;DHT22;9921;47.186;9.778;2023-11-21T08:47:15;9.80;99.90
19552;DHT22;9921;47.186;9.778;2023-11-21T08:49:42;10.00;99.90
19552;DHT22;9921;47.186;9.778;2023-11-21T08:52:09;10.20;99.90
19552;DHT22;9921;47.186;9.778;2023-11-21T08:54:36;10.30;99.90
19552;DHT22;9921;47.186;9.778;2023-11-21T08:57:03;10.50;99.90
19552;DHT22;9921;47.186;9.778;2023-11-21T08:59:32;10.60;99.90
19552;DHT22;9921;47.186;9.778;2023-11-21T09:01:58;10.70;99.90
19552;DHT22;9921;47.186;9.778;2023-11-21T09:04:25;10.80;99.90
19552;DHT22;9921;47.186;9.778;2023-11-21T09:06:52;10.90;99.90
19552;DHT22;9921;47.186;9.778;2023-11-21T09:09:19;10.90;99.90
19552;DHT22;9921;47.186;9.778;2023-11-21T09:11:46;10.80;99.90
19552;DHT22;9921;47.186;9.778;2023-11-21T09:14:14;10.80;99.90
19552;DHT22;9921;47.186;9.778;2023-11-21T09:16:44;10.70;99.90
19552;DHT22;9921;47.186;9.778;2023-11-21T09:19:12;10.70;99.90
19552;DHT22;9921;47.186;9.778;2023-11-21T09:21:39;10.70;99.90
19552;DHT22;9921;47.186;9.778;2023-11-21T09:24:07;10.70;99.90
19552;DHT22;9921;47.186;9.778;2023-11-21T09:26:35;10.70;99.90
19552;DHT22;9921;47.186;9.778;2023-11-21T09:29:01;10.80;99.90
19552;DHT22;9921;47.186;9.778;2023-11-21T09:31:28;10.90;99.90
19552;DHT22;9921;47.186;9.778;2023-11-21T09:33:58;11.00;99.90
19552;DHT22;9921;47.186;9.778;2023-11-21T09:36:24;11.20;99.90
19552;DHT22;9921;47.186;9.778;2023-11-21T09:38:53;11.30;99.90
19552;DHT22;9921;47.186;9.778;2023-11-21T09:41:31;11.50;99.90
19552;DHT22;9921;47.186;9.778;2023-11-21T09:44:03;11.60;99.90
19552;DHT22;9921;47.186;9.778;2023-11-21T09:46:37;11.80;99.90
19552;DHT22;9921;47.186;9.778;2023-11-21T09:49:09;12.00;99.90
19552;DHT22;9921;47.186;9.778;2023-11-21T09:51:39;12.20;99.90
19552;DHT22;9921;47.186;9.778;2023-11-21T09:54:07;12.50;99.90
19552;DHT22;9921;47.186;9.778;2023-11-21T09:56:35;12.70;99.90
19552;DHT22;9921;47.186;9.778;2023-11-21T09:59:03;12.90;99.90
19552;DHT22;9921;47.186;9.778;2023-11-21T10:01:32;12.90;99.90
19552;DHT22;9921;47.186;9.778;2023-11-21T10:04:00;13.00;99.90
19552;DHT22;9921;47.186;9.778;2023-11-21T10:06:29;13.10;99.90
19552;DHT22;9921;47.186;9.778;2023-11-21T10:08:58;13.10;99.90
19552;DHT22;9921;47.186;9.778;2023-11-21T10:11:27;13.30;99.90
19552;DHT22;9921;47.186;9.778;2023-11-21T10:13:55;13.40;99.90
19552;DHT22;9921;47.186;9.778;2023-11-21T10:16:26;13.60;99.90
19552;DHT22;9921;47.186;9.778;2023-11-21T10:18:53;13.80;99.90
19552;DHT22;9921;47.186;9.778;2023-11-21T10:21:21;14.00;99.90
19552;DHT22;9921;47.186;9.778;2023-11-21T10:23:50;14.30;99.90
19552;DHT22;9921;47.186;9.778;2023-11-21T10:26:19;14.50;99.90
19552;DHT22;9921;47.186;9.778;2023-11-21T10:28:55;14.80;99.90
19552;DHT22;9921;47.186;9.778;2023-11-21T10:31:23;15.00;99.90
19552;DHT22;9921;47.186;9.778;2023-11-21T10:33:50;15.20;99.90
19552;DHT22;9921;47.186;9.778;2023-11-21T10:36:25;15.30;99.90
19552;DHT22;9921;47.186;9.778;2023-11-21T10:38:54;15.30;99.90
19552;DHT22;9921;47.186;9.778;2023-11-21T10:41:22;15.30;99.90
19552;DHT22;9921;47.186;9.778;2023-11-21T10:43:53;15.10;99.90
19552;DHT22;9921;47.186;9.778;2023-11-21T10:46:20;15.00;99.90
19552;DHT22;9921;47.186;9.778;2023-11-21T10:48:52;14.80;99.90
19552;DHT22;9921;47.186;9.778;2023-11-21T10:51:20;14.60;99.90
19552;DHT22;9921;47.186;9.778;2023-11-21T10:53:47;14.80;99.90
19552;DHT22;9921;47.186;9.778;2023-11-21T10:56:18;15.10;99.90
19552;DHT22;9921;47.186;9.778;2023-11-21T10:58:49;15.30;99.90
19552;DHT22;9921;47.186;9.778;2023-11-21T11:01:17;15.30;99.90
19552;DHT22;9921;47.186;9.778;2023-11-21T11:03:47;15.40;99.90
19552;DHT22;9921;47.186;9.778;2023-11-21T11:06:14;15.50;99.90
19552;DHT22;9921;47.186;9.778;2023-11-21T11:08:42;15.60;99.90
19552;DHT22;9921;47.186;9.778;2023-11-21T11:11:09;15.60;99.90
19552;DHT22;9921;47.186;9.778;2023-11-21T11:13:43;15.60;99.90
19552;DHT22;9921;47.186;9.778;2023-11-21T11:16:11;15.60;99.90
19552;DHT22;9921;47.186;9.778;2023-11-21T11:18:42;15.50;99.90
19552;DHT22;9921;47.186;9.778;2023-11-21T11:21:19;15.10;99.90
19552;DHT22;9921;47.186;9.778;2023-11-21T11:24:05;14.80;99.90
19552;DHT22;9921;47.186;9.778;2023-11-21T11:26:42;14.50;99.90
19552;DHT22;9921;47.186;9.778;2023-11-21T11:29:19;14.40;99.90
19552;DHT22;9921;47.186;9.778;2023-11-21T11:31:58;14.40;99.90
19552;DHT22;9921;47.186;9.778;2023-11-21T11:34:32;14.50;99.90
19552;DHT22;9921;47.186;9.778;2023-11-21T11:37:04;14.50;99.90
19552;DHT22;9921;47.186;9.778;2023-11-21T11:39:35;14.40;99.90
19552;DHT22;9921;47.186;9.778;2023-11-21T11:42:04;14.10;99.90
19552;DHT22;9921;47.186;9.778;2023-11-21T11:44:50;13.90;99.90
19552;DHT22;9921;47.186;9.778;2023-11-21T11:47:21;13.60;99.90
19552;DHT22;9921;47.186;9.778;2023-11-21T11:49:57;13.40;99.90
19552;DHT22;9921;47.186;9.778;2023-11-21T11:52:38;13.30;99.90
19552;DHT22;9921;47.186;9.778;2023-11-21T11:55:07;13.30;99.90
19552;DHT22;9921;47.186;9.778;2023-11-21T11:57:37;13.40;99.90
19552;DHT22;9921;47.186;9.778;2023-11-21T12:00:14;13.40;99.90
19552;DHT22;9921;47.186;9.778;2023-11-21T12:02:46;13.50;99.90
19552;DHT22;9921;47.186;9.778;2023-11-21T12:05:14;13.50;99.90
19552;DHT22;9921;47.186;9.778;2023-11-21T12:07:43;13.50;99.90
19552;DHT22;9921;47.186;9.778;2023-11-21T12:10:16;13.60;99.90
19552;DHT22;9921;47.186;9.778;2023-11-21T12:12:46;13.70;99.90
19552;DHT22;9921;47.186;9.778;2023-11-21T12:15:13;13.80;99.90
19552;DHT22;9921;47.186;9.778;2023-11-21T12:17:41;13.90;99.90
19552;DHT22;9921;47.186;9.778;2023-11-21T12:20:09;13.90;99.90
19552;DHT22;9921;47.186;9.778;2023-11-21T12:22:42;13.80;99.90
19552;DHT22;9921;47.186;9.778;2023-11-21T12:25:09;13.60;99.90
19552;DHT22;9921;47.186;9.778;2023-11-21T12:27:42;13.30;99.90
19552;DHT22;9921;47.186;9.778;2023-11-21T12:30:10;13.00;99.90
19552;DHT22;9921;47.186;9.778;2023-11-21T12:32:40;12.70;99.90
19552;DHT22;9921;47.186;9.778;2023-11-21T12:35:09;12.30;99.90
19552;DHT22;9921;47.186;9.778;2023-11-21T12:37:39;12.00;99.90
19552;DHT22;9921;47.186;9.778;2023-11-21T12:40:08;11.70;99.90
19552;DHT22;9921;47.186;9.778;2023-11-21T12:42:37;11.50;99.90
19552;DHT22;9921;47.186;9.778;2023-11-21T12:45:09;11.40;99.90
19552;DHT22;9921;47.186;9.778;2023-11-21T12:47:41;11.40;99.90
19552;DHT22;9921;47.186;9.778;2023-11-21T12:50:09;11.40;99.90
19552;DHT22;9921;47.186;9.778;2023-11-21T12:52:41;11.40;99.90
19552;DHT22;9921;47.186;9.778;2023-11-21T12:55:14;11.30;99.90
19552;DHT22;9921;47.186;9.778;2023-11-21T12:57:42;11.40;99.90
19552;DHT22;9921;47.186;9.778;2023-11-21T13:00:11;11.40;99.90
19552;DHT22;9921;47.186;9.778;2023-11-21T13:02:51;11.40;99.90
19552;DHT22;9921;47.186;9.778;2023-11-21T13:05:24;11.30;99.90
19552;DHT22;9921;47.186;9.778;2023-11-21T13:07:52;11.30;99.90
19552;DHT22;9921;47.186;9.778;2023-11-21T13:10:21;11.30;99.90
19552;DHT22;9921;47.186;9.778;2023-11-21T13:12:52;11.30;99.90
19552;DHT22;9921;47.186;9.778;2023-11-21T13:15:20;11.30;99.90
19552;DHT22;9921;47.186;9.778;2023-11-21T13:17:47;11.30;99.90
19552;DHT22;9921;47.186;9.778;2023-11-21T13:20:17;11.40;99.90
19552;DHT22;9921;47.186;9.778;2023-11-21T13:22:49;11.50;99.90
19552;DHT22;9921;47.186;9.778;2023-11-21T13:25:20;11.60;99.90
19552;DHT22;9921;47.186;9.778;2023-11-21T13:27:47;11.70;99.90
19552;DHT22;9921;47.186;9.778;2023-11-21T13:30:14;11.70;99.90
19552;DHT22;9921;47.186;9.778;2023-11-21T13:32:43;11.80;99.90
19552;DHT22;9921;47.186;9.778;2023-11-21T13:35:10;11.80;99.90
19552;DHT22;9921;47.186;9.778;2023-11-21T13:37:49;11.80;99.90
19552;DHT22;9921;47.186;9.778;2023-11-21T13:40:20;11.90;99.90
19552;DHT22;9921;47.186;9.778;2023-11-21T13:42:49;11.90;99.90
19552;DHT22;9921;47.186;9.778;2023-11-21T13:45:19;12.00;99.90
19552;DHT22;9921;47.186;9.778;2023-11-21T13:47:48;12.10;99.90
19552;DHT22;9921;47.186;9.778;2023-11-21T13:50:17;12.20;99.90
19552;DHT22;9921;47.186;9.778;2023-11-21T13:52:49;12.30;99.90
19552;DHT22;9921;47.186;9.778;2023-11-21T13:55:18;12.20;99.90
19552;DHT22;9921;47.186;9.778;2023-11-21T13:57:45;12.20;99.90
19552;DHT22;9921;47.186;9.778;2023-11-21T14:00:16;12.10;99.90
19552;DHT22;9921;47.186;9.778;2023-11-21T14:02:57;12.00;99.90
19552;DHT22;9921;47.186;9.778;2023-11-21T14:05:26;11.80;99.90
19552;DHT22;9921;47.186;9.778;2023-11-21T14:07:56;11.60;99.90
19552;DHT22;9921;47.186;9.778;2023-11-21T14:10:28;11.50;99.90
19552;DHT22;9921;47.186;9.778;2023-11-21T14:13:03;11.40;99.90
19552;DHT22;9921;47.186;9.778;2023-11-21T14:15:31;11.20;99.90
19552;DHT22;9921;47.186;9.778;2023-11-21T14:17:59;11.10;99.90
19552;DHT22;9921;47.186;9.778;2023-11-21T14:20:28;11.10;99.90
19552;DHT22;9921;47.186;9.778;2023-11-21T14:22:57;11.10;99.90
19552;DHT22;9921;47.186;9.778;2023-11-21T14:25:23;11.10;99.90
19552;DHT22;9921;47.186;9.778;2023-11-21T14:27:52;11.00;99.90
19552;DHT22;9921;47.186;9.778;2023-11-21T14:30:19;11.00;99.90
19552;DHT22;9921;47.186;9.778;2023-11-21T14:32:48;11.00;99.90
19552;DHT22;9921;47.186;9.778;2023-11-21T14:35:15;11.00;99.90
19552;DHT22;9921;47.186;9.778;2023-11-21T14:37:42;11.00;99.90
19552;DHT22;9921;47.186;9.778;2023-11-21T14:40:12;11.00;99.90
19552;DHT22;9921;47.186;9.778;2023-11-21T14:42:41;10.90;99.90
19552;DHT22;9921;47.186;9.778;2023-11-21T14:45:10;10.80;99.90
19552;DHT22;9921;47.186;9.778;2023-11-21T14:47:38;10.70;99.90
19552;DHT22;9921;47.186;9.778;2023-11-21T14:50:10;10.70;99.90
19552;DHT22;9921;47.186;9.778;2023-11-21T14:53:04;10.60;99.90
19552;DHT22;9921;47.186;9.778;2023-11-21T14:55:33;10.50;99.90
19552;DHT22;9921;47.186;9.778;2023-11-21T14:58:13;10.30;99.90
19552;DHT22;9921;47.186;9.778;2023-11-21T15:00:44;10.20;99.90
19552;DHT22;9921;47.186;9.778;2023-11-21T15:03:11;10.00;99.90
19552;DHT22;9921;47.186;9.778;2023-11-21T15:05:52;9.90;99.90
19552;DHT22;9921;47.186;9.778;2023-11-21T15:08:19;9.70;99.90
19552;DHT22;9921;47.186;9.778;2023-11-21T15:10:50;9.60;99.90
19552;DHT22;9921;47.186;9.778;2023-11-21T15:13:20;9.50;99.90
19552;DHT22;9921;47.186;9.778;2023-11-21T15:15:47;9.40;99.90
19552;DHT22;9921;47.186;9.778;2023-11-21T15:18:14;9.40;99.90
19552;DHT22;9921;47.186;9.778;2023-11-21T15:20:41;9.30;99.90
19552;DHT22;9921;47.186;9.778;2023-11-21T15:23:09;9.20;99.90
19552;DHT22;9921;47.186;9.778;2023-11-21T15:25:38;9.20;99.90
19552;DHT22;9921;47.186;9.778;2023-11-21T15:28:06;9.10;99.90
19552;DHT22;9921;47.186;9.778;2023-11-21T15:30:33;9.00;99.90
19552;DHT22;9921;47.186;9.778;2023-11-21T15:33:00;9.00;99.90
19552;DHT22;9921;47.186;9.778;2023-11-21T15:35:29;8.90;99.90
19552;DHT22;9921;47.186;9.778;2023-11-21T15:37:57;8.90;99.90
19552;DHT22;9921;47.186;9.778;2023-11-21T15:40:24;8.90;99.90
19552;DHT22;9921;47.186;9.778;2023-11-21T15:42:52;8.90;99.90
19552;DHT22;9921;47.186;9.778;2023-11-21T15:45:20;8.90;99.90
19552;DHT22;9921;47.186;9.778;2023-11-21T15:47:50;8.90;99.90
19552;DHT22;9921;47.186;9.778;2023-11-21T15:50:17;9.00;99.90
19552;DHT22;9921;47.186;9.778;2023-11-21T15:52:45;9.00;99.90
19552;DHT22;9921;47.186;9.778;2023-11-21T15:55:13;8.90;99.90
19552;DHT22;9921;47.186;9.778;2023-11-21T15:57:39;8.90;99.90
19552;DHT22;9921;47.186;9.778;2023-11-21T16:00:07;8.90;99.90
19552;DHT22;9921;47.186;9.778;2023-11-21T16:02:42;8.90;99.90